sensor_id;sensor_type;location;lat;lon;timestamp;pressure;altitude;pressure_sealevel;temperature;humidity
47366;BME280;33105;47.964;7.982;2023-08-21T00:02:07;97202.31;;;22.92;82.72
47366;BME280;33105;47.964;7.982;2023-08-21T00:05:08;97197.72;;;22.88;82.75
47366;BME280;33105;47.964;7.982;2023-08-21T00:08:13;97191.16;;;22.84;82.80
47366;BME280;33105;47.964;7.982;2023-08-21T00:11:51;97191.63;;;22.77;82.96
47366;BME280;33105;47.964;7.982;2023-08-21T00:15:11;97187.41;;;22.54;83.91
47366;BME280;33105;47.964;7.982;2023-08-21T00:18:23;97194.78;;;22.58;83.68
47366;BME280;33105;47.964;7.982;2023-08-21T00:25:27;97188.09;;;22.51;84.09
47366;BME280;33105;47.964;7.982;2023-08-21T00:29:02;97185.63;;;22.49;84.11
47366;BME280;33105;47.964;7.982;2023-08-21T00:32:12;97188.72;;;22.48;84.26
47366;BME280;33105;47.964;7.982;2023-08-21T00:35:14;97187.25;;;22.50;84.16
47366;BME280;33105;47.964;7.982;2023-08-21T00:38:22;97184.31;;;22.47;84.15
47366;BME280;33105;47.964;7.982;2023-08-21T00:45:00;97190.03;;;22.42;84.25
47366;BME280;33105;47.964;7.982;2023-08-21T00:48:07;97191.84;;;22.37;84.04
47366;BME280;33105;47.964;7.982;2023-08-21T00:51:29;97196.25;;;22.38;84.18
47366;BME280;33105;47.964;7.982;2023-08-21T00:55:00;97188.88;;;22.34;83.81
47366;BME280;33105;47.964;7.982;2023-08-21T00:59:15;97188.25;;;22.20;84.83
47366;BME280;33105;47.964;7.982;2023-08-21T01:06:52;97188.56;;;22.18;84.59
47366;BME280;33105;47.964;7.982;2023-08-21T01:10:19;97189.56;;;22.22;84.28
47366;BME280;33105;47.964;7.982;2023-08-21T01:14:13;97185.13;;;22.21;84.14
47366;BME280;33105;47.964;7.982;2023-08-21T01:25:27;97188.72;;;22.13;84.74
47366;BME280;33105;47.964;7.982;2023-08-21T01:29:13;97191.81;;;22.03;85.15
47366;BME280;33105;47.964;7.982;2023-08-21T01:36:57;97196.53;;;21.94;85.88
47366;BME280;33105;47.964;7.982;2023-08-21T01:39:59;97193.47;;;22.13;84.45
47366;BME280;33105;47.964;7.982;2023-08-21T01:43:42;97199.00;;;22.04;85.03
47366;BME280;33105;47.964;7.982;2023-08-21T01:46:53;97199.69;;;22.01;84.67
47366;BME280;33105;47.964;7.982;2023-08-21T01:49:55;97192.44;;;22.00;84.87
47366;BME280;33105;47.964;7.982;2023-08-21T01:53:17;97183.75;;;21.93;85.21
47366;BME280;33105;47.964;7.982;2023-08-21T01:56:26;97180.66;;;21.94;85.02
47366;BME280;33105;47.964;7.982;2023-08-21T01:59:33;97186.59;;;22.01;84.38
47366;BME280;33105;47.964;7.982;2023-08-21T02:03:25;97180.03;;;22.06;84.35
47366;BME280;33105;47.964;7.982;2023-08-21T02:06:14;97175.13;;;22.12;83.53
47366;BME280;33105;47.964;7.982;2023-08-21T02:09:19;97179.38;;;22.09;83.64
47366;BME280;33105;47.964;7.982;2023-08-21T02:12:26;97176.59;;;22.09;83.46
47366;BME280;33105;47.964;7.982;2023-08-21T02:15:31;97167.75;;;22.07;83.70
47366;BME280;33105;47.964;7.982;2023-08-21T02:18:47;97169.22;;;22.04;83.49
47366;BME280;33105;47.964;7.982;2023-08-21T02:21:57;97160.72;;;22.01;83.78
47366;BME280;33105;47.964;7.982;2023-08-21T02:25:22;97161.03;;;21.99;83.87
47366;BME280;33105;47.964;7.982;2023-08-21T02:28:30;97164.63;;;22.00;83.75
47366;BME280;33105;47.964;7.982;2023-08-21T02:31:47;97162.84;;;22.04;83.37
47366;BME280;33105;47.964;7.982;2023-08-21T02:35:28;97163.31;;;21.97;83.76
47366;BME280;33105;47.964;7.982;2023-08-21T02:39:26;97171.00;;;21.92;84.08
47366;BME280;33105;47.964;7.982;2023-08-21T02:46:27;97165.06;;;21.85;83.93
47366;BME280;33105;47.964;7.982;2023-08-21T02:49:28;97163.75;;;21.73;84.93
47366;BME280;33105;47.964;7.982;2023-08-21T02:52:39;97165.72;;;21.73;85.00
47366;BME280;33105;47.964;7.982;2023-08-21T02:55:50;97162.13;;;21.72;84.91
47366;BME280;33105;47.964;7.982;2023-08-21T02:58:51;97168.69;;;21.77;84.88
47366;BME280;33105;47.964;7.982;2023-08-21T03:01:53;97158.19;;;21.73;84.61
47366;BME280;33105;47.964;7.982;2023-08-21T03:05:00;97163.13;;;21.77;84.41
47366;BME280;33105;47.964;7.982;2023-08-21T03:08:02;97169.31;;;21.73;84.46
47366;BME280;33105;47.964;7.982;2023-08-21T03:11:19;97171.78;;;21.75;84.63
47366;BME280;33105;47.964;7.982;2023-08-21T03:14:24;97177.81;;;21.68;85.32
47366;BME280;33105;47.964;7.982;2023-08-21T03:17:26;97185.66;;;21.66;85.41
47366;BME280;33105;47.964;7.982;2023-08-21T03:24:47;97192.00;;;21.50;87.10
47366;BME280;33105;47.964;7.982;2023-08-21T03:27:59;97197.25;;;21.51;86.31
47366;BME280;33105;47.964;7.982;2023-08-21T03:31:09;97195.09;;;21.48;87.14
47366;BME280;33105;47.964;7.982;2023-08-21T03:34:11;97206.72;;;21.50;86.76
47366;BME280;33105;47.964;7.982;2023-08-21T03:38:04;97206.03;;;21.45;86.76
47366;BME280;33105;47.964;7.982;2023-08-21T03:41:14;97205.66;;;21.37;87.75
47366;BME280;33105;47.964;7.982;2023-08-21T03:44:37;97198.28;;;21.33;87.92
47366;BME280;33105;47.964;7.982;2023-08-21T03:47:44;97204.97;;;21.23;88.93
47366;BME280;33105;47.964;7.982;2023-08-21T03:51:04;97213.72;;;21.17;88.89
47366;BME280;33105;47.964;7.982;2023-08-21T03:55:00;97216.63;;;21.12;89.61
47366;BME280;33105;47.964;7.982;2023-08-21T03:58:09;97220.03;;;21.09;90.44
47366;BME280;33105;47.964;7.982;2023-08-21T04:01:11;97219.69;;;21.01;90.13
47366;BME280;33105;47.964;7.982;2023-08-21T04:04:13;97213.38;;;20.87;89.70
47366;BME280;33105;47.964;7.982;2023-08-21T04:07:14;97217.69;;;20.93;89.47
47366;BME280;33105;47.964;7.982;2023-08-21T04:10:19;97219.50;;;20.98;89.10
47366;BME280;33105;47.964;7.982;2023-08-21T04:13:23;97223.75;;;20.95;88.96
47366;BME280;33105;47.964;7.982;2023-08-21T04:16:25;97225.69;;;20.95;88.64
47366;BME280;33105;47.964;7.982;2023-08-21T04:19:28;97219.00;;;20.96;88.61
47366;BME280;33105;47.964;7.982;2023-08-21T04:22:45;97225.88;;;20.98;88.47
47366;BME280;33105;47.964;7.982;2023-08-21T04:26:05;97223.22;;;20.93;89.35
47366;BME280;33105;47.964;7.982;2023-08-21T04:29:13;97224.38;;;20.92;89.27
47366;BME280;33105;47.964;7.982;2023-08-21T04:32:27;97227.34;;;20.96;88.23
47366;BME280;33105;47.964;7.982;2023-08-21T04:35:45;97220.25;;;20.90;88.92
47366;BME280;33105;47.964;7.982;2023-08-21T04:39:07;97236.09;;;20.89;89.18
47366;BME280;33105;47.964;7.982;2023-08-21T04:42:38;97232.00;;;20.87;89.21
47366;BME280;33105;47.964;7.982;2023-08-21T04:45:51;97235.34;;;20.97;88.71
47366;BME280;33105;47.964;7.982;2023-08-21T04:49:07;97242.34;;;20.95;88.40
47366;BME280;33105;47.964;7.982;2023-08-21T04:52:39;97236.81;;;20.95;87.92
47366;BME280;33105;47.964;7.982;2023-08-21T04:59:16;97245.63;;;20.97;88.25
47366;BME280;33105;47.964;7.982;2023-08-21T05:02:51;97248.75;;;20.95;88.65
47366;BME280;33105;47.964;7.982;2023-08-21T05:06:00;97248.75;;;20.95;88.51
47366;BME280;33105;47.964;7.982;2023-08-21T05:09:11;97248.75;;;20.95;88.88
47366;BME280;33105;47.964;7.982;2023-08-21T05:12:13;97248.84;;;20.90;88.97
47366;BME280;33105;47.964;7.982;2023-08-21T05:15:24;97247.59;;;20.96;88.88
47366;BME280;33105;47.964;7.982;2023-08-21T05:18:26;97252.53;;;20.99;88.68
47366;BME280;33105;47.964;7.982;2023-08-21T05:21:35;97251.22;;;21.05;88.15
47366;BME280;33105;47.964;7.982;2023-08-21T05:24:41;97256.94;;;21.00;88.09
47366;BME280;33105;47.964;7.982;2023-08-21T05:28:01;97259.53;;;20.97;89.25
47366;BME280;33105;47.964;7.982;2023-08-21T05:31:08;97258.09;;;21.22;87.69
47366;BME280;33105;47.964;7.982;2023-08-21T05:34:23;97260.56;;;21.10;89.15
47366;BME280;33105;47.964;7.982;2023-08-21T05:37:26;97261.91;;;21.12;89.32
47366;BME280;33105;47.964;7.982;2023-08-21T05:40:30;97261.47;;;21.19;89.69
47366;BME280;33105;47.964;7.982;2023-08-21T05:43:34;97253.44;;;21.17;90.04
47366;BME280;33105;47.964;7.982;2023-08-21T05:46:37;97259.22;;;21.21;90.78
47366;BME280;33105;47.964;7.982;2023-08-21T05:50:09;97266.63;;;21.34;90.48
47366;BME280;33105;47.964;7.982;2023-08-21T05:53:11;97263.97;;;21.29;92.17
47366;BME280;33105;47.964;7.982;2023-08-21T05:56:12;97267.31;;;21.39;91.20
47366;BME280;33105;47.964;7.982;2023-08-21T05:59:34;97267.38;;;21.48;91.62
47366;BME280;33105;47.964;7.982;2023-08-21T06:06:35;97258.63;;;21.72;92.16
47366;BME280;33105;47.964;7.982;2023-08-21T06:10:03;97268.94;;;21.80;90.86
47366;BME280;33105;47.964;7.982;2023-08-21T06:13:06;97265.25;;;21.93;92.11
47366;BME280;33105;47.964;7.982;2023-08-21T06:16:13;97265.78;;;22.04;91.47
47366;BME280;33105;47.964;7.982;2023-08-21T06:19:41;97266.66;;;22.22;89.39
47366;BME280;33105;47.964;7.982;2023-08-21T06:22:57;97269.97;;;22.41;87.50
47366;BME280;33105;47.964;7.982;2023-08-21T06:25:59;97265.69;;;22.44;84.91
47366;BME280;33105;47.964;7.982;2023-08-21T06:29:55;97276.38;;;22.67;84.54
47366;BME280;33105;47.964;7.982;2023-08-21T06:32:59;97278.81;;;22.69;87.33
47366;BME280;33105;47.964;7.982;2023-08-21T06:36:01;97274.03;;;22.35;86.71
47366;BME280;33105;47.964;7.982;2023-08-21T06:39:09;97282.72;;;22.33;88.76
47366;BME280;33105;47.964;7.982;2023-08-21T06:42:16;97280.44;;;22.53;87.02
47366;BME280;33105;47.964;7.982;2023-08-21T06:45:23;97284.38;;;22.69;88.96
47366;BME280;33105;47.964;7.982;2023-08-21T06:48:39;97282.59;;;22.82;88.73
47366;BME280;33105;47.964;7.982;2023-08-21T06:51:42;97281.28;;;22.79;88.91
47366;BME280;33105;47.964;7.982;2023-08-21T06:54:43;97275.72;;;22.88;90.32
47366;BME280;33105;47.964;7.982;2023-08-21T06:57:44;97279.66;;;22.87;88.26
47366;BME280;33105;47.964;7.982;2023-08-21T07:00:46;97267.34;;;23.14;84.03
47366;BME280;33105;47.964;7.982;2023-08-21T07:03:59;97275.31;;;23.32;88.40
47366;BME280;33105;47.964;7.982;2023-08-21T07:07:01;97277.28;;;23.32;87.88
47366;BME280;33105;47.964;7.982;2023-08-21T07:10:16;97278.25;;;23.36;89.30
47366;BME280;33105;47.964;7.982;2023-08-21T07:13:19;97270.53;;;23.50;87.85
47366;BME280;33105;47.964;7.982;2023-08-21T07:16:20;97274.13;;;23.59;87.90
47366;BME280;33105;47.964;7.982;2023-08-21T07:19:22;97274.78;;;23.56;87.53
47366;BME280;33105;47.964;7.982;2023-08-21T07:22:27;97265.88;;;23.71;87.87
47366;BME280;33105;47.964;7.982;2023-08-21T07:25:40;97281.69;;;23.97;87.51
47366;BME280;33105;47.964;7.982;2023-08-21T07:28:50;97268.13;;;24.16;86.93
47366;BME280;33105;47.964;7.982;2023-08-21T07:32:18;97276.28;;;24.21;83.83
47366;BME280;33105;47.964;7.982;2023-08-21T07:35:56;97275.66;;;24.16;82.14
47366;BME280;33105;47.964;7.982;2023-08-21T07:39:18;97279.28;;;24.46;80.40
47366;BME280;33105;47.964;7.982;2023-08-21T07:42:19;97277.94;;;24.22;81.22
47366;BME280;33105;47.964;7.982;2023-08-21T07:45:21;97287.03;;;24.40;84.60
47366;BME280;33105;47.964;7.982;2023-08-21T07:48:22;97285.94;;;24.32;84.42
47366;BME280;33105;47.964;7.982;2023-08-21T07:51:24;97290.69;;;24.32;81.92
47366;BME280;33105;47.964;7.982;2023-08-21T07:54:33;97298.44;;;24.26;82.81
47366;BME280;33105;47.964;7.982;2023-08-21T08:01:19;97288.34;;;24.84;81.46
47366;BME280;33105;47.964;7.982;2023-08-21T08:04:22;97290.19;;;25.01;79.25
47366;BME280;33105;47.964;7.982;2023-08-21T08:07:23;97296.97;;;25.33;77.71
47366;BME280;33105;47.964;7.982;2023-08-21T08:10:31;97289.78;;;25.44;75.51
47366;BME280;33105;47.964;7.982;2023-08-21T08:13:32;97290.22;;;25.67;73.53
47366;BME280;33105;47.964;7.982;2023-08-21T08:16:42;97293.19;;;25.95;75.17
47366;BME280;33105;47.964;7.982;2023-08-21T08:19:43;97295.16;;;25.94;76.88
47366;BME280;33105;47.964;7.982;2023-08-21T08:22:54;97287.22;;;25.72;75.75
47366;BME280;33105;47.964;7.982;2023-08-21T08:25:56;97295.19;;;25.61;75.29
47366;BME280;33105;47.964;7.982;2023-08-21T08:28:58;97291.06;;;25.92;73.31
47366;BME280;33105;47.964;7.982;2023-08-21T08:32:00;97291.56;;;26.18;76.16
47366;BME280;33105;47.964;7.982;2023-08-21T08:35:01;97283.47;;;26.53;74.35
47366;BME280;33105;47.964;7.982;2023-08-21T08:38:03;97290.41;;;26.43;77.90
47366;BME280;33105;47.964;7.982;2023-08-21T08:41:11;97290.13;;;26.12;77.99
47366;BME280;33105;47.964;7.982;2023-08-21T08:44:16;97285.59;;;26.07;78.89
47366;BME280;33105;47.964;7.982;2023-08-21T08:47:19;97289.44;;;26.15;76.01
47366;BME280;33105;47.964;7.982;2023-08-21T08:50:21;97290.38;;;26.07;75.54
47366;BME280;33105;47.964;7.982;2023-08-21T08:53:23;97291.06;;;25.92;74.99
47366;BME280;33105;47.964;7.982;2023-08-21T08:56:28;97284.06;;;26.10;76.79
47366;BME280;33105;47.964;7.982;2023-08-21T08:59:30;97278.94;;;26.12;76.40
47366;BME280;33105;47.964;7.982;2023-08-21T09:02:40;97283.16;;;26.18;75.88
47366;BME280;33105;47.964;7.982;2023-08-21T09:05:45;97288.88;;;26.34;75.72
47366;BME280;33105;47.964;7.982;2023-08-21T09:08:59;97286.50;;;26.72;74.91
47366;BME280;33105;47.964;7.982;2023-08-21T09:12:00;97284.09;;;26.47;72.29
47366;BME280;33105;47.964;7.982;2023-08-21T09:15:07;97284.19;;;26.50;72.24
47366;BME280;33105;47.964;7.982;2023-08-21T09:18:11;97279.13;;;27.20;68.54
47366;BME280;33105;47.964;7.982;2023-08-21T09:21:16;97270.28;;;27.50;68.86
47366;BME280;33105;47.964;7.982;2023-08-21T09:24:18;97275.94;;;27.22;70.34
47366;BME280;33105;47.964;7.982;2023-08-21T09:27:19;97271.59;;;26.84;70.46
47366;BME280;33105;47.964;7.982;2023-08-21T09:30:21;97279.34;;;26.75;68.34
47366;BME280;33105;47.964;7.982;2023-08-21T09:33:25;97278.41;;;26.95;68.89
47366;BME280;33105;47.964;7.982;2023-08-21T09:36:32;97271.00;;;26.91;68.91
47366;BME280;33105;47.964;7.982;2023-08-21T09:39:35;97264.91;;;27.29;68.73
47366;BME280;33105;47.964;7.982;2023-08-21T09:42:39;97263.38;;;27.59;67.97
47366;BME280;33105;47.964;7.982;2023-08-21T09:45:40;97266.84;;;27.40;67.18
47366;BME280;33105;47.964;7.982;2023-08-21T09:48:44;97267.34;;;27.30;66.64
47366;BME280;33105;47.964;7.982;2023-08-21T09:51:52;97269.19;;;27.38;66.79
47366;BME280;33105;47.964;7.982;2023-08-21T09:54:56;97262.31;;;27.52;67.42
47366;BME280;33105;47.964;7.982;2023-08-21T09:57:59;97253.34;;;27.90;65.60
47366;BME280;33105;47.964;7.982;2023-08-21T10:01:04;97260.19;;;28.08;67.68
47366;BME280;33105;47.964;7.982;2023-08-21T10:04:13;97252.72;;;28.47;62.59
47366;BME280;33105;47.964;7.982;2023-08-21T10:07:21;97247.88;;;28.28;62.87
47366;BME280;33105;47.964;7.982;2023-08-21T10:10:26;97249.88;;;28.12;64.06
47366;BME280;33105;47.964;7.982;2023-08-21T10:13:27;97253.41;;;28.25;65.35
47366;BME280;33105;47.964;7.982;2023-08-21T10:16:29;97242.69;;;28.30;64.88
47366;BME280;33105;47.964;7.982;2023-08-21T10:19:31;97247.50;;;28.46;62.80
47366;BME280;33105;47.964;7.982;2023-08-21T10:22:43;97240.78;;;28.34;61.99
47366;BME280;33105;47.964;7.982;2023-08-21T10:25:45;97241.06;;;28.29;62.04
47366;BME280;33105;47.964;7.982;2023-08-21T10:32:00;97238.81;;;28.70;61.68
47366;BME280;33105;47.964;7.982;2023-08-21T10:35:03;97235.88;;;28.82;62.33
47366;BME280;33105;47.964;7.982;2023-08-21T10:38:15;97234.50;;;29.34;61.08
47366;BME280;33105;47.964;7.982;2023-08-21T10:41:26;97234.72;;;29.25;62.55
47366;BME280;33105;47.964;7.982;2023-08-21T10:47:41;97237.72;;;28.94;61.52
47366;BME280;33105;47.964;7.982;2023-08-21T10:50:42;97229.53;;;29.27;63.48
47366;BME280;33105;47.964;7.982;2023-08-21T10:53:46;97222.97;;;29.85;60.75
47366;BME280;33105;47.964;7.982;2023-08-21T10:56:48;97229.31;;;30.01;54.31
47366;BME280;33105;47.964;7.982;2023-08-21T10:59:57;97231.88;;;29.64;58.83
47366;BME280;33105;47.964;7.982;2023-08-21T11:02:58;97221.44;;;29.64;61.51
47366;BME280;33105;47.964;7.982;2023-08-21T11:06:04;97214.91;;;29.83;57.34
47366;BME280;33105;47.964;7.982;2023-08-21T11:09:12;97219.06;;;29.66;56.13
47366;BME280;33105;47.964;7.982;2023-08-21T11:12:16;97215.41;;;29.89;57.39
47366;BME280;33105;47.964;7.982;2023-08-21T11:15:18;97218.81;;;30.24;53.84
47366;BME280;33105;47.964;7.982;2023-08-21T11:18:19;97214.09;;;30.32;57.21
47366;BME280;33105;47.964;7.982;2023-08-21T11:21:26;97218.81;;;30.24;55.12
47366;BME280;33105;47.964;7.982;2023-08-21T11:24:48;97210.47;;;29.59;57.14
47366;BME280;33105;47.964;7.982;2023-08-21T11:27:49;97218.50;;;29.38;56.04
47366;BME280;33105;47.964;7.982;2023-08-21T11:30:50;97210.97;;;29.42;55.06
47366;BME280;33105;47.964;7.982;2023-08-21T11:33:52;97213.34;;;30.08;56.33
47366;BME280;33105;47.964;7.982;2023-08-21T11:36:53;97224.19;;;30.33;57.40
47366;BME280;33105;47.964;7.982;2023-08-21T11:39:56;97215.09;;;30.43;54.68
47366;BME280;33105;47.964;7.982;2023-08-21T11:43:01;97218.53;;;30.06;54.66
47366;BME280;33105;47.964;7.982;2023-08-21T11:46:03;97216.22;;;29.89;54.85
47366;BME280;33105;47.964;7.982;2023-08-21T11:49:05;97206.06;;;29.85;55.66
47366;BME280;33105;47.964;7.982;2023-08-21T11:52:06;97200.16;;;29.67;53.99
47366;BME280;33105;47.964;7.982;2023-08-21T11:55:11;97202.75;;;30.02;56.05
47366;BME280;33105;47.964;7.982;2023-08-21T11:58:12;97196.25;;;30.24;55.45
47366;BME280;33105;47.964;7.982;2023-08-21T12:01:21;97192.59;;;29.97;52.33
47366;BME280;33105;47.964;7.982;2023-08-21T12:04:22;97187.50;;;29.80;54.19
47366;BME280;33105;47.964;7.982;2023-08-21T12:07:24;97192.75;;;29.82;52.99
47366;BME280;33105;47.964;7.982;2023-08-21T12:10:28;97188.25;;;29.77;53.26
47366;BME280;33105;47.964;7.982;2023-08-21T12:13:30;97187.22;;;30.11;54.72
47366;BME280;33105;47.964;7.982;2023-08-21T12:16:31;97184.34;;;30.34;52.84
47366;BME280;33105;47.964;7.982;2023-08-21T12:19:33;97177.41;;;30.28;54.84
47366;BME280;33105;47.964;7.982;2023-08-21T12:22:34;97184.09;;;30.17;53.58
47366;BME280;33105;47.964;7.982;2023-08-21T12:25:36;97181.09;;;30.32;54.83
47366;BME280;33105;47.964;7.982;2023-08-21T12:28:37;97171.97;;;30.72;51.33
47366;BME280;33105;47.964;7.982;2023-08-21T12:31:38;97169.13;;;30.13;52.56
47366;BME280;33105;47.964;7.982;2023-08-21T12:34:39;97168.25;;;30.08;53.15
47366;BME280;33105;47.964;7.982;2023-08-21T12:37:41;97168.00;;;30.21;52.72
47366;BME280;33105;47.964;7.982;2023-08-21T12:40:42;97171.50;;;30.10;52.95
47366;BME280;33105;47.964;7.982;2023-08-21T12:43:43;97173.50;;;30.36;53.71
47366;BME280;33105;47.964;7.982;2023-08-21T12:46:44;97167.38;;;30.31;52.12
47366;BME280;33105;47.964;7.982;2023-08-21T12:49:46;97162.63;;;30.65;54.30
47366;BME280;33105;47.964;7.982;2023-08-21T12:52:48;97154.94;;;30.62;54.13
47366;BME280;33105;47.964;7.982;2023-08-21T12:55:49;97144.19;;;31.08;53.99
47366;BME280;33105;47.964;7.982;2023-08-21T12:58:51;97150.69;;;30.78;51.67
47366;BME280;33105;47.964;7.982;2023-08-21T13:01:52;97143.03;;;30.49;52.57
47366;BME280;33105;47.964;7.982;2023-08-21T13:04:56;97153.34;;;30.64;54.88
47366;BME280;33105;47.964;7.982;2023-08-21T13:07:57;97135.88;;;30.55;52.19
47366;BME280;33105;47.964;7.982;2023-08-21T13:11:04;97147.06;;;30.78;50.86
47366;BME280;33105;47.964;7.982;2023-08-21T13:14:10;97140.47;;;31.00;52.17
47366;BME280;33105;47.964;7.982;2023-08-21T13:17:18;97133.63;;;31.01;49.99
47366;BME280;33105;47.964;7.982;2023-08-21T13:20:26;97137.72;;;31.41;51.80
47366;BME280;33105;47.964;7.982;2023-08-21T13:23:29;97131.56;;;31.32;53.16
47366;BME280;33105;47.964;7.982;2023-08-21T13:26:34;97140.59;;;31.11;51.63
47366;BME280;33105;47.964;7.982;2023-08-21T13:29:35;97135.69;;;31.04;51.76
47366;BME280;33105;47.964;7.982;2023-08-21T13:32:36;97132.06;;;31.04;52.61
47366;BME280;33105;47.964;7.982;2023-08-21T13:35:37;97130.16;;;31.11;51.29
47366;BME280;33105;47.964;7.982;2023-08-21T13:38:38;97132.13;;;31.11;51.19
47366;BME280;33105;47.964;7.982;2023-08-21T13:41:40;97132.97;;;31.11;51.20
47366;BME280;33105;47.964;7.982;2023-08-21T13:44:41;97133.03;;;31.19;54.25
47366;BME280;33105;47.964;7.982;2023-08-21T13:47:47;97131.19;;;31.00;48.93
47366;BME280;33105;47.964;7.982;2023-08-21T13:50:48;97119.19;;;31.06;50.16
47366;BME280;33105;47.964;7.982;2023-08-21T13:53:50;97125.34;;;31.16;49.84
47366;BME280;33105;47.964;7.982;2023-08-21T13:56:52;97117.44;;;31.32;50.78
47366;BME280;33105;47.964;7.982;2023-08-21T13:59:53;97115.31;;;31.18;47.92
47366;BME280;33105;47.964;7.982;2023-08-21T14:02:54;97119.44;;;31.31;48.62
47366;BME280;33105;47.964;7.982;2023-08-21T14:05:55;97118.19;;;31.25;48.99
47366;BME280;33105;47.964;7.982;2023-08-21T14:08:57;97115.50;;;31.39;51.36
47366;BME280;33105;47.964;7.982;2023-08-21T14:11:58;97119.16;;;31.40;49.18
47366;BME280;33105;47.964;7.982;2023-08-21T14:15:00;97107.78;;;31.33;48.77
47366;BME280;33105;47.964;7.982;2023-08-21T14:18:04;97106.66;;;31.41;47.70
47366;BME280;33105;47.964;7.982;2023-08-21T14:21:06;97102.72;;;31.56;48.13
47366;BME280;33105;47.964;7.982;2023-08-21T14:24:07;97100.75;;;31.60;49.23
47366;BME280;33105;47.964;7.982;2023-08-21T14:27:09;97108.88;;;31.65;49.29
47366;BME280;33105;47.964;7.982;2023-08-21T14:30:12;97107.31;;;31.71;46.70
47366;BME280;33105;47.964;7.982;2023-08-21T14:33:13;97104.06;;;31.69;47.29
47366;BME280;33105;47.964;7.982;2023-08-21T14:36:15;97110.03;;;31.61;46.83
47366;BME280;33105;47.964;7.982;2023-08-21T14:39:17;97100.34;;;31.58;47.76
47366;BME280;33105;47.964;7.982;2023-08-21T14:42:18;97106.75;;;31.55;47.00
47366;BME280;33105;47.964;7.982;2023-08-21T14:45:20;97094.38;;;31.70;45.83
47366;BME280;33105;47.964;7.982;2023-08-21T14:48:22;97092.66;;;31.59;45.04
47366;BME280;33105;47.964;7.982;2023-08-21T14:51:25;97095.88;;;31.57;45.42
47366;BME280;33105;47.964;7.982;2023-08-21T14:54:29;97088.25;;;31.61;45.07
47366;BME280;33105;47.964;7.982;2023-08-21T14:57:30;97087.06;;;31.62;44.87
47366;BME280;33105;47.964;7.982;2023-08-21T15:00:31;97087.06;;;31.62;43.77
47366;BME280;33105;47.964;7.982;2023-08-21T15:03:33;97079.72;;;31.54;44.31
47366;BME280;33105;47.964;7.982;2023-08-21T15:06:35;97079.72;;;31.54;45.02
47366;BME280;33105;47.964;7.982;2023-08-21T15:09:36;97077.44;;;31.67;46.44
47366;BME280;33105;47.964;7.982;2023-08-21T15:12:40;97077.44;;;31.70;43.25
47366;BME280;33105;47.964;7.982;2023-08-21T15:15:41;97079.44;;;31.70;45.45
47366;BME280;33105;47.964;7.982;2023-08-21T15:18:42;97079.09;;;31.75;45.39
47366;BME280;33105;47.964;7.982;2023-08-21T15:21:44;97087.06;;;31.62;42.62
47366;BME280;33105;47.964;7.982;2023-08-21T15:24:45;97071.31;;;31.61;43.47
47366;BME280;33105;47.964;7.982;2023-08-21T15:27:46;97070.03;;;31.55;44.44
47366;BME280;33105;47.964;7.982;2023-08-21T15:30:50;97066.63;;;31.32;44.56
47366;BME280;33105;47.964;7.982;2023-08-21T15:33:51;97066.16;;;31.26;45.01
47366;BME280;33105;47.964;7.982;2023-08-21T15:36:53;97063.84;;;31.35;46.94
47366;BME280;33105;47.964;7.982;2023-08-21T15:39:54;97065.00;;;31.31;46.08
47366;BME280;33105;47.964;7.982;2023-08-21T15:42:56;97055.19;;;31.14;47.05
47366;BME280;33105;47.964;7.982;2023-08-21T15:45:58;97056.53;;;31.31;45.82
47366;BME280;33105;47.964;7.982;2023-08-21T15:48:59;97065.66;;;31.14;46.73
47366;BME280;33105;47.964;7.982;2023-08-21T15:52:00;97056.16;;;30.95;45.47
47366;BME280;33105;47.964;7.982;2023-08-21T15:55:01;97058.16;;;30.95;46.90
47366;BME280;33105;47.964;7.982;2023-08-21T15:58:03;97059.91;;;30.66;45.84
47366;BME280;33105;47.964;7.982;2023-08-21T16:01:04;97056.88;;;30.52;45.39
47366;BME280;33105;47.964;7.982;2023-08-21T16:04:09;97055.56;;;30.42;45.34
47366;BME280;33105;47.964;7.982;2023-08-21T16:07:11;97049.13;;;30.41;46.31
47366;BME280;33105;47.964;7.982;2023-08-21T16:10:12;97044.75;;;30.48;46.44
47366;BME280;33105;47.964;7.982;2023-08-21T16:13:14;97052.81;;;30.49;47.49
47366;BME280;33105;47.964;7.982;2023-08-21T16:16:18;97053.75;;;30.57;48.37
47366;BME280;33105;47.964;7.982;2023-08-21T16:19:19;97044.91;;;30.58;46.48
47366;BME280;33105;47.964;7.982;2023-08-21T16:22:21;97041.84;;;30.40;47.69
47366;BME280;33105;47.964;7.982;2023-08-21T16:25:22;97047.06;;;30.38;48.91
47366;BME280;33105;47.964;7.982;2023-08-21T16:28:24;97039.66;;;30.27;47.13
47366;BME280;33105;47.964;7.982;2023-08-21T16:31:25;97044.31;;;30.12;47.29
47366;BME280;33105;47.964;7.982;2023-08-21T16:34:27;97037.13;;;30.15;46.94
47366;BME280;33105;47.964;7.982;2023-08-21T16:37:28;97034.09;;;30.00;47.39
47366;BME280;33105;47.964;7.982;2023-08-21T16:40:29;97040.09;;;29.99;47.64
47366;BME280;33105;47.964;7.982;2023-08-21T16:43:31;97032.63;;;30.10;49.34
47366;BME280;33105;47.964;7.982;2023-08-21T16:46:32;97035.00;;;30.08;48.17
47366;BME280;33105;47.964;7.982;2023-08-21T16:49:34;97026.88;;;30.03;48.50
47366;BME280;33105;47.964;7.982;2023-08-21T16:52:35;97034.47;;;29.99;48.03
47366;BME280;33105;47.964;7.982;2023-08-21T16:55:36;97029.56;;;29.96;48.04
47366;BME280;33105;47.964;7.982;2023-08-21T16:58:38;97035.00;;;29.82;49.70
47366;BME280;33105;47.964;7.982;2023-08-21T17:01:39;97031.94;;;29.90;48.81
47366;BME280;33105;47.964;7.982;2023-08-21T17:04:40;97040.28;;;29.83;49.71
47366;BME280;33105;47.964;7.982;2023-08-21T17:07:41;97041.84;;;29.81;49.17
47366;BME280;33105;47.964;7.982;2023-08-21T17:10:45;97044.47;;;29.66;49.68
47366;BME280;33105;47.964;7.982;2023-08-21T17:13:46;97040.44;;;29.67;52.28
47366;BME280;33105;47.964;7.982;2023-08-21T17:16:50;97040.97;;;29.50;51.55
47366;BME280;33105;47.964;7.982;2023-08-21T17:19:52;97032.91;;;29.49;50.53
47366;BME280;33105;47.964;7.982;2023-08-21T17:22:56;97035.53;;;29.38;52.27